FMCZ Airport Information

Runway Information
Runway 16 Length 6330 ft width 92 ft
Elevation 10 ft Threshold 250 ft Heading 150
Runway 34 Length 6330 ft Width 92 ft
Elevation 23 ft Threshold 0 ft Heading 330
Airport Frequencies
Type AFIS Name AFIS Frequency 119.2 MHZ
Airport Navaids
Type VOR-DME Name Dzaoudzi Pamandzi Frequency 113500 KHZ
Type NDB Name Dzaoudzi Pamandzi Frequency 341 KHZ
Airport Weather Information & NOTAM
ADDS - METARS form results

(1759 UTC 24 January 2020)
Data provider http://aviationweather.gov/metar/data/
 
METAR text: FMCZ 241730Z AUTO 34005KT 9999 -RA NSC 25/24 Q1012 TEMPO SHRA BECMG BKN010 BKN035
Conditions at: FMCZ (DZAOUDZI/PAMANZI, KM) observed 1730 UTC 24 January 2020
Temperature: 25.0°C (77°F)
Dewpoint: 24.0°C (75°F) [RH = 94%]
Pressure (altimeter): 29.88 inches Hg (1012.0 mb)
Winds: from the NNW (340 degrees) at 6 MPH (5 knots; 2.6 m/s)
Visibility: 6 or more miles (10+ km)
Ceiling: at least 12,000 feet AGL
Clouds: sky clear below 12,000 feet AGL
Weather: -RA  (light rain)

METAR text: FMCZ 241700Z AUTO 30013KT 9999 -RADZ SCT012 BKN043 BKN049 25/25 Q1012 NOSIG
Conditions at: FMCZ (DZAOUDZI/PAMANZI, KM) observed 1700 UTC 24 January 2020
Temperature: 25.0°C (77°F)
Dewpoint: 25.0°C (77°F) [RH = 100%]
Pressure (altimeter): 29.88 inches Hg (1012.0 mb)
Winds: from the WNW (300 degrees) at 15 MPH (13 knots; 6.7 m/s)
Visibility: 6 or more miles (10+ km)
Ceiling: 4300 feet AGL
Clouds: scattered clouds at 1200 feet AGL
broken clouds at 4300 feet AGL
broken clouds at 4900 feet AGL
Weather: -RA -DZ  (light rain, light drizzle)

Forecast for: FMCZ (DZAOUDZI/PAMANZI, KM)
Text: TAF FMCZ 241700Z 2418/2518 32012KT 9999 BKN010 BKN035
Forecast period: 1800 UTC 24 January 2020 to 1800 UTC 25 January 2020
Forecast type: FROM: standard forecast or significant change
Winds: from the NW (320 degrees) at 14 MPH (12 knots; 6.2 m/s)
Visibility: 6 or more miles 10+ km)
Ceiling: 1000 feet AGL
Clouds: broken clouds at 1000 feet AGL
broken clouds at 3500 feet AGL
Weather: no significant weather forecast for this period
Text: TEMPO 2418/2424 SHRA
Forecast period: 1800 UTC 24 January 2020 to 0000 UTC 25 January 2020
Forecast type: TEMPORARY: The following changes expected for less than half the time period
Visibility: missing
Ceiling: unknown
Clouds: missing
Weather: SHRA  (rain showers)